Time;durP1;ratioP1;P1;durP2;ratioP2;P2;SDS_P1;SDS_P2;PMS_P1;PMS_P2;Temp;Humidity;BMP_temperature;BMP_pressure;BME280_temperature;BME280_humidity;BME280_pressure;Samples;Min_cycle;Max_cycle;Signal;HPM_P1;HPM_P2
2021/05/31 00:02:17;;;;;;;22.67;10.88;;;;;;;14.05;63.87;102309.44;5104540;28;20055;-67
2021/05/31 00:04:43;;;;;;;22.75;10.27;;;;;;;13.92;64.61;102301.31;5102003;28;20029;-67
2021/05/31 00:07:19;;;;;;;22.48;11.05;;;;;;;13.85;64.87;102309.16;5103544;28;20512;-66
2021/05/31 00:09:47;;;;;;;23.08;10.90;;;;;;;13.80;65.63;102306.44;5101873;28;20085;-68
2021/05/31 00:12:16;;;;;;;23.77;11.73;;;;;;;13.74;64.63;102304.56;5103882;28;20024;-71
2021/05/31 00:14:44;;;;;;;24.10;11.60;;;;;;;13.68;65.42;102298.31;5101908;28;20064;-69
2021/05/31 00:17:09;;;;;;;23.15;10.98;;;;;;;13.69;65.81;102297.41;5103679;28;20024;-69
2021/05/31 00:19:35;;;;;;;23.52;11.65;;;;;;;13.57;66.04;102299.03;5102745;28;20051;-69
2021/05/31 00:22:01;;;;;;;25.17;12.07;;;;;;;13.51;66.15;102298.91;5102271;28;20111;-66
2021/05/31 00:24:26;;;;;;;24.48;12.15;;;;;;;13.40;66.55;102293.47;5104681;28;20097;-68
2021/05/31 00:26:53;;;;;;;23.58;11.98;;;;;;;13.44;67.29;102294.41;5100939;28;20027;-67
2021/05/31 00:29:24;;;;;;;25.10;12.20;;;;;;;13.39;66.92;102291.66;5104629;28;20080;-67
2021/05/31 00:31:50;;;;;;;23.85;11.57;;;;;;;13.30;67.52;102290.63;5097158;28;20020;-69
2021/05/31 00:34:16;;;;;;;25.15;12.27;;;;;;;13.28;67.98;102293.25;5104242;28;20027;-70
2021/05/31 00:36:41;;;;;;;23.73;12.60;;;;;;;13.32;68.26;102294.19;5101983;28;20044;-69
2021/05/31 00:39:07;;;;;;;24.95;12.25;;;;;;;13.36;67.85;102290.72;5102932;28;20589;-66
2021/05/31 00:41:32;;;;;;;25.13;12.55;;;;;;;13.33;68.19;102290.66;5103193;28;20486;-68
2021/05/31 00:43:57;;;;;;;25.63;12.77;;;;;;;13.33;68.40;102290.66;5101476;28;20036;-67
2021/05/31 00:46:25;;;;;;;25.50;12.68;;;;;;;13.21;68.51;102283.41;5104562;28;20100;-70
2021/05/31 00:48:51;;;;;;;24.10;12.50;;;;;;;13.15;68.73;102285.91;5096807;28;20031;-67
2021/05/31 00:51:17;;;;;;;24.33;12.45;;;;;;;13.13;69.26;102282.38;5103984;28;20062;-65
2021/05/31 00:53:42;;;;;;;26.23;13.52;;;;;;;13.03;69.63;102283.97;5102138;28;20055;-73
2021/05/31 00:56:08;;;;;;;24.42;13.10;;;;;;;13.02;69.84;102284.84;5101652;28;20016;-66
2021/05/31 00:58:33;;;;;;;23.80;12.88;;;;;;;12.91;70.30;102282.00;5102916;28;20088;-66
2021/05/31 01:01:01;;;;;;;27.15;13.30;;;;;;;12.87;70.86;102286.38;5101706;28;20027;-67
2021/05/31 01:03:27;;;;;;;27.30;13.35;;;;;;;12.84;71.08;102282.75;5107491;27;20042;-72
2021/05/31 01:05:55;;;;;;;25.05;13.20;;;;;;;12.82;71.43;102280.06;5104939;28;20546;-71
2021/05/31 01:08:26;;;;;;;26.40;13.13;;;;;;;12.75;71.63;102280.81;5108269;28;20115;-69
2021/05/31 01:11:11;;;;;;;25.65;13.10;;;;;;;12.78;70.28;102283.53;5100546;28;20051;-70
2021/05/31 01:14:06;;;;;;;26.17;13.75;;;;;;;12.69;70.95;102286.03;5102464;28;20034;-71
2021/05/31 01:16:39;;;;;;;26.05;13.93;;;;;;;12.60;72.47;102285.88;5103024;28;20032;-71
2021/05/31 01:19:12;;;;;;;25.58;13.98;;;;;;;12.53;73.10;102287.50;5106337;28;20110;-72
2021/05/31 01:22:00;;;;;;;26.40;13.40;;;;;;;12.48;73.35;102281.19;5104893;28;20090;-69
2021/05/31 01:24:54;;;;;;;26.55;14.57;;;;;;;12.48;71.91;102287.41;5101028;28;20032;-68
2021/05/31 01:27:19;;;;;;;25.08;13.07;;;;;;;12.33;73.65;102279.13;5100026;28;20069;-70
2021/05/31 01:29:53;;;;;;;26.85;13.93;;;;;;;12.31;73.30;102280.88;5107097;28;20390;-71
2021/05/31 01:32:35;;;;;;;26.40;14.45;;;;;;;12.26;72.79;102285.19;5104228;28;20024;-70
2021/05/31 01:35:05;;;;;;;25.58;13.90;;;;;;;12.24;74.13;102279.84;5102501;28;20020;-70
2021/05/31 01:37:33;;;;;;;25.58;14.32;;;;;;;12.31;74.14;102278.22;5106344;28;20047;-70
2021/05/31 01:40:04;;;;;;;26.15;13.80;;;;;;;12.16;74.75;102285.00;5104630;28;20024;-70
2021/05/31 01:42:30;;;;;;;29.00;14.77;;;;;;;12.27;74.42;102281.69;5106639;28;20389;-70
2021/05/31 01:44:55;;;;;;;26.92;14.02;;;;;;;12.23;74.31;102279.81;5102787;28;20016;-70
2021/05/31 01:47:21;;;;;;;27.48;14.93;;;;;;;12.10;75.58;102274.28;5107263;28;20026;-70
2021/05/31 01:49:47;;;;;;;26.83;14.57;;;;;;;12.20;75.93;102281.56;5104092;28;20046;-65
2021/05/31 01:52:15;;;;;;;27.77;14.88;;;;;;;12.09;75.99;102280.44;5105020;28;20020;-65
2021/05/31 01:54:41;;;;;;;29.98;15.52;;;;;;;12.17;76.52;102285.88;5104961;28;20019;-64
2021/05/31 01:57:07;;;;;;;28.20;15.68;;;;;;;12.14;76.79;102275.22;5105444;28;20028;-66
2021/05/31 01:59:33;;;;;;;27.40;15.18;;;;;;;12.05;76.97;102275.06;5105715;28;20027;-64
2021/05/31 02:01:59;;;;;;;27.17;14.90;;;;;;;12.01;77.12;102277.63;5104050;28;20051;-65
2021/05/31 02:04:24;;;;;;;28.75;15.93;;;;;;;11.95;78.06;102276.59;5107077;28;20031;-64
2021/05/31 02:06:53;;;;;;;27.85;15.43;;;;;;;11.91;78.06;102278.28;5099449;28;20020;-64
2021/05/31 02:09:23;;;;;;;28.58;16.23;;;;;;;11.89;78.14;102276.44;5106629;28;20027;-66
2021/05/31 02:11:59;;;;;;;29.60;16.48;;;;;;;11.83;78.22;102274.56;5103570;28;20020;-65
2021/05/31 02:14:44;;;;;;;29.52;15.77;;;;;;;11.82;77.87;102268.38;5105841;28;20023;-69
2021/05/31 02:17:34;;;;;;;28.70;16.20;;;;;;;11.77;77.88;102275.31;5105171;28;20024;-69
2021/05/31 02:20:03;;;;;;;30.50;16.38;;;;;;;11.70;79.78;102270.72;5101310;28;20073;-70
2021/05/31 02:22:31;;;;;;;28.98;16.95;;;;;;;11.71;80.22;102271.59;5105955;28;20027;-67
2021/05/31 02:24:57;;;;;;;29.45;16.55;;;;;;;11.67;80.71;102273.31;5103269;28;20528;-68
2021/05/31 02:27:24;;;;;;;31.13;17.17;;;;;;;11.71;80.81;102267.22;5106686;27;20027;-70
2021/05/31 02:29:49;;;;;;;30.15;16.58;;;;;;;11.63;80.63;102276.75;5103207;28;20028;-71
2021/05/31 02:32:14;;;;;;;30.00;17.45;;;;;;;11.58;81.14;102271.34;5105931;28;20744;-65
2021/05/31 02:34:40;;;;;;;29.75;16.83;;;;;;;11.60;81.04;102274.91;5104520;28;20055;-68
2021/05/31 02:37:08;;;;;;;29.73;17.35;;;;;;;11.55;81.57;102279.22;5103940;28;20036;-70
2021/05/31 02:39:34;;;;;;;31.60;17.50;;;;;;;11.59;81.43;102274.88;5104921;28;20040;-66
2021/05/31 02:41:59;;;;;;;29.00;16.85;;;;;;;11.54;81.52;102272.13;5103662;28;20431;-68
2021/05/31 02:44:24;;;;;;;29.50;17.52;;;;;;;11.56;81.16;102278.34;5106078;27;20027;-66
2021/05/31 02:46:50;;;;;;;30.60;17.42;;;;;;;11.55;80.95;102279.22;5102875;28;20073;-66
2021/05/31 02:49:15;;;;;;;28.13;16.67;;;;;;;11.46;80.93;102279.91;5105477;28;20374;-65
2021/05/31 02:51:40;;;;;;;29.85;17.45;;;;;;;11.44;82.32;102270.13;5103980;28;20386;-70
2021/05/31 02:54:06;;;;;;;29.02;17.02;;;;;;;11.36;82.04;102277.91;5103914;28;20384;-66
2021/05/31 02:56:33;;;;;;;32.75;18.52;;;;;;;11.28;83.25;102271.53;5105138;28;20153;-65
2021/05/31 02:58:58;;;;;;;31.10;17.80;;;;;;;11.25;83.47;102285.56;5102542;28;20028;-65
2021/05/31 03:01:23;;;;;;;30.98;17.50;;;;;;;11.21;83.90;102280.16;5104342;28;20038;-65
2021/05/31 03:03:49;;;;;;;31.27;18.13;;;;;;;11.16;84.07;102278.28;5102461;28;20098;-66
2021/05/31 03:06:14;;;;;;;30.02;17.70;;;;;;;11.14;84.27;102277.38;5104827;28;20043;-64
2021/05/31 03:08:39;;;;;;;29.92;18.33;;;;;;;11.10;84.46;102277.28;5103782;27;20136;-66
2021/05/31 03:11:05;;;;;;;31.23;17.73;;;;;;;11.08;84.95;102271.94;5103412;28;20020;-69
2021/05/31 03:13:30;;;;;;;29.73;17.77;;;;;;;11.07;83.69;102274.56;5104956;28;20023;-69
2021/05/31 03:15:55;;;;;;;31.15;17.77;;;;;;;11.03;84.47;102270.91;5102060;28;20021;-69
2021/05/31 03:18:21;;;;;;;31.38;18.83;;;;;;;11.11;84.83;102277.31;5105453;28;20046;-66
2021/05/31 03:20:47;;;;;;;33.28;18.83;;;;;;;11.04;85.32;102270.06;5102692;28;20034;-68
2021/05/31 03:23:12;;;;;;;31.80;19.13;;;;;;;10.98;85.46;102276.09;5104615;28;20085;-69
2021/05/31 03:25:37;;;;;;;32.92;20.75;;;;;;;10.90;86.55;102282.03;5103443;28;20055;-68
2021/05/31 03:28:03;;;;;;;34.33;19.55;;;;;;;10.86;87.67;102270.47;5102862;28;20028;-69
2021/05/31 03:30:29;;;;;;;31.42;19.52;;;;;;;10.80;87.13;102270.31;5104865;28;20033;-67
2021/05/31 03:32:56;;;;;;;33.72;19.58;;;;;;;10.80;86.92;102273.88;5101905;28;20368;-66
2021/05/31 03:35:21;;;;;;;32.97;20.65;;;;;;;10.76;87.63;102272.00;5098068;28;20027;-66
2021/05/31 03:37:47;;;;;;;36.28;20.92;;;;;;;10.75;88.40;102270.22;5104594;28;20385;-66
2021/05/31 03:40:13;;;;;;;35.15;20.75;;;;;;;10.74;89.18;102275.47;5102817;28;20020;-66
2021/05/31 03:42:39;;;;;;;34.63;19.95;;;;;;;10.68;87.77;102276.19;5103449;28;20108;-64
2021/05/31 03:45:07;;;;;;;32.40;20.35;;;;;;;10.72;88.76;102282.47;5104221;28;20020;-65
2021/05/31 03:47:32;;;;;;;35.30;22.00;;;;;;;10.63;88.96;102284.00;5102275;28;20139;-69
2021/05/31 03:49:58;;;;;;;34.22;22.27;;;;;;;10.63;90.61;102281.38;5105181;28;20107;-64
2021/05/31 03:52:23;;;;;;;36.33;21.95;;;;;;;10.61;91.29;102274.22;5101378;28;20494;-64
2021/05/31 03:54:49;;;;;;;34.42;21.13;;;;;;;10.66;90.26;102279.63;5104839;28;20028;-64
2021/05/31 03:57:14;;;;;;;35.13;21.58;;;;;;;10.67;91.09;102277.03;5102499;28;20055;-64
2021/05/31 03:59:39;;;;;;;37.63;22.15;;;;;;;10.70;90.52;102277.09;5103032;28;20028;-65
2021/05/31 04:02:05;;;;;;;33.92;21.60;;;;;;;10.71;90.81;102278.03;5103370;28;20015;-64
2021/05/31 04:04:40;;;;;;;34.00;21.67;;;;;;;10.75;90.76;102277.25;5102081;28;20153;-64
2021/05/31 04:12:33;;;;;;;35.33;22.80;;;;;;;10.75;91.65;102280.78;5098541;28;20042;-64
2021/05/31 04:14:58;;;;;;;34.47;22.13;;;;;;;10.81;91.32;102283.59;5104286;28;20027;-64
2021/05/31 04:17:24;;;;;;;36.70;23.40;;;;;;;10.84;91.86;102287.19;5101265;28;20439;-64
2021/05/31 04:19:49;;;;;;;36.75;23.17;;;;;;;10.84;91.78;102282.78;5102889;28;20036;-64
2021/05/31 04:22:14;;;;;;;35.80;23.08;;;;;;;10.91;92.26;102286.50;5101890;28;20119;-64
2021/05/31 04:24:40;;;;;;;39.35;24.15;;;;;;;10.94;92.36;102283.91;5103144;28;20023;-64
2021/05/31 04:27:05;;;;;;;37.38;23.98;;;;;;;10.96;92.45;102280.44;5103188;28;20019;-64
2021/05/31 04:29:31;;;;;;;36.30;23.92;;;;;;;10.95;92.82;102283.97;5101435;28;20031;-64
2021/05/31 04:31:56;;;;;;;38.70;24.10;;;;;;;11.06;93.26;102289.50;5104914;28;20374;-64
2021/05/31 04:34:22;;;;;;;38.42;25.48;;;;;;;11.01;93.05;102283.22;5101160;28;20024;-69
2021/05/31 04:36:47;;;;;;;38.08;24.27;;;;;;;11.06;92.29;102286.88;5105408;28;20022;-71
2021/05/31 04:39:12;;;;;;;37.78;25.08;;;;;;;11.12;93.40;102287.00;5106173;28;20548;-71
2021/05/31 04:41:38;;;;;;;38.22;25.17;;;;;;;11.19;93.69;102290.72;5106632;28;20036;-73
2021/05/31 04:44:05;;;;;;;39.67;25.50;;;;;;;11.21;93.23;102282.81;5107496;28;20466;-71
2021/05/31 04:46:31;;;;;;;39.55;25.20;;;;;;;11.28;93.69;102284.75;5105780;28;20016;-69
2021/05/31 04:48:56;;;;;;;39.42;25.42;;;;;;;11.35;93.25;102289.34;5108701;28;20481;-71
2021/05/31 04:51:24;;;;;;;40.05;25.58;;;;;;;11.33;92.43;102289.31;5101246;28;20020;-71
2021/05/31 04:53:49;;;;;;;40.28;26.40;;;;;;;11.45;92.96;102275.47;5108122;28;20020;-73
2021/05/31 04:56:16;;;;;;;40.58;26.45;;;;;;;11.44;93.15;102284.25;5105638;28;20382;-70
2021/05/31 04:58:41;;;;;;;41.65;27.27;;;;;;;11.52;92.98;102280.03;5106701;28;20035;-69
2021/05/31 05:01:06;;;;;;;41.97;26.95;;;;;;;11.60;93.04;102282.84;5107018;28;20016;-70
2021/05/31 05:03:32;;;;;;;39.30;26.10;;;;;;;11.66;93.29;102279.47;5105486;28;20536;-70
2021/05/31 05:05:57;;;;;;;39.08;26.40;;;;;;;11.69;92.13;102283.09;5096381;28;20103;-65
2021/05/31 05:08:22;;;;;;;41.70;28.33;;;;;;;11.77;93.49;102283.25;5095552;28;20032;-66
2021/05/31 05:10:48;;;;;;;41.13;26.92;;;;;;;11.89;92.52;102277.31;5094325;28;20028;-63
2021/05/31 05:13:13;;;;;;;39.53;27.23;;;;;;;11.93;91.84;102273.00;5095578;28;20034;-65
2021/05/31 05:15:39;;;;;;;41.45;27.40;;;;;;;12.00;91.59;102273.19;5094195;28;20028;-65
2021/05/31 05:18:05;;;;;;;42.03;27.17;;;;;;;12.05;90.37;102281.22;5094005;28;20036;-65
2021/05/31 05:20:31;;;;;;;41.35;27.05;;;;;;;12.04;89.45;102274.13;5096611;28;20418;-64
2021/05/31 05:22:57;;;;;;;41.22;27.58;;;;;;;12.08;89.73;102276.00;5094588;28;20031;-63
2021/05/31 05:25:23;;;;;;;39.92;27.95;;;;;;;12.16;89.55;102274.41;5094210;28;20028;-67
2021/05/31 05:27:49;;;;;;;41.08;28.20;;;;;;;12.27;90.58;102271.06;5095265;28;20081;-65
2021/05/31 05:30:17;;;;;;;41.13;27.92;;;;;;;12.36;89.50;102276.53;5093682;28;20390;-66
2021/05/31 05:32:48;;;;;;;39.97;27.25;;;;;;;12.45;89.27;102278.47;5095086;28;20032;-65
2021/05/31 05:38:02;;;;;;;40.20;27.80;;;;;;;12.56;87.67;102277.81;5096006;28;20407;-65
2021/05/31 05:48:22;;;;;;;41.50;28.40;;;;;;;12.83;85.27;102273.00;5093722;28;20029;-65
2021/05/31 05:50:47;;;;;;;41.00;27.00;;;;;;;12.89;85.10;102276.66;5096435;28;20030;-65
2021/05/31 05:53:13;;;;;;;40.97;29.23;;;;;;;12.97;84.95;102274.13;5093577;28;20111;-65
2021/05/31 05:55:38;;;;;;;41.88;27.98;;;;;;;12.99;83.30;102275.06;5093599;28;20099;-64
2021/05/31 05:58:04;;;;;;;40.28;26.48;;;;;;;13.02;82.62;102272.47;5095010;28;20040;-64
2021/05/31 06:00:31;;;;;;;39.00;26.83;;;;;;;13.04;83.06;102278.66;5093127;28;20024;-64
2021/05/31 06:02:57;;;;;;;39.05;26.55;;;;;;;13.07;83.39;102272.53;5094405;28;20030;-66
2021/05/31 06:05:23;;;;;;;41.63;28.42;;;;;;;13.13;83.32;102275.28;5093783;28;20024;-67
2021/05/31 06:07:49;;;;;;;41.17;28.27;;;;;;;13.19;82.96;102269.19;5094443;28;20028;-66
2021/05/31 06:10:15;;;;;;;40.17;27.98;;;;;;;13.24;82.17;102273.69;5093683;28;20020;-64
2021/05/31 06:12:41;;;;;;;39.05;28.02;;;;;;;13.29;81.11;102267.56;5093011;28;20032;-65
2021/05/31 06:15:08;;;;;;;39.10;27.30;;;;;;;13.33;81.08;102278.25;5093563;28;20471;-65
2021/05/31 06:17:34;;;;;;;40.25;26.55;;;;;;;13.44;82.06;102267.84;5093570;28;20093;-65
2021/05/31 06:20:00;;;;;;;39.50;27.17;;;;;;;13.49;80.88;102271.47;5094078;28;20467;-65
2021/05/31 06:22:31;;;;;;;35.42;23.63;;;;;;;13.58;80.09;102274.22;5094095;28;20032;-65
2021/05/31 06:24:57;;;;;;;38.17;24.95;;;;;;;13.66;79.16;102266.41;5093488;28;20032;-66
2021/05/31 06:27:22;;;;;;;38.30;26.52;;;;;;;13.72;77.94;102262.94;5094448;28;20026;-66
2021/05/31 06:29:47;;;;;;;37.95;26.67;;;;;;;13.78;78.29;102265.66;5091913;28;20040;-67
2021/05/31 06:32:13;;;;;;;37.30;24.80;;;;;;;13.85;76.58;102263.97;5094449;28;20458;-66
2021/05/31 06:34:38;;;;;;;37.13;23.10;;;;;;;13.93;74.69;102260.53;5095342;28;20515;-67
2021/05/31 06:37:04;;;;;;;34.78;22.95;;;;;;;14.02;75.29;102262.41;5096000;28;20031;-65
2021/05/31 06:39:29;;;;;;;35.80;23.05;;;;;;;14.11;75.67;102257.25;5093886;28;20040;-67
2021/05/31 06:41:55;;;;;;;37.17;23.20;;;;;;;14.20;74.70;102259.13;5091239;28;20024;-67
2021/05/31 06:44:20;;;;;;;36.50;22.77;;;;;;;14.27;73.10;102260.97;5093151;28;20055;-66
2021/05/31 06:46:46;;;;;;;38.03;23.42;;;;;;;14.35;73.30;102255.72;5094931;28;20031;-64
2021/05/31 06:49:11;;;;;;;34.92;22.00;;;;;;;14.42;72.09;102262.03;5092775;28;20032;-64
2021/05/31 06:51:37;;;;;;;34.30;22.45;;;;;;;14.52;72.74;102260.31;5093591;28;20028;-64
2021/05/31 06:54:03;;;;;;;35.20;22.23;;;;;;;14.60;73.05;102253.31;5091592;28;20149;-64
2021/05/31 06:56:28;;;;;;;35.00;22.17;;;;;;;14.67;71.78;102249.88;5092770;28;20024;-65
2021/05/31 06:58:54;;;;;;;34.40;21.58;;;;;;;14.74;72.02;102256.16;5092527;28;20028;-64
2021/05/31 07:01:19;;;;;;;35.00;21.17;;;;;;;14.82;70.93;102251.78;5093311;28;20031;-65
2021/05/31 07:03:45;;;;;;;35.47;21.52;;;;;;;14.90;71.28;102247.44;5092707;28;20547;-64
2021/05/31 07:06:10;;;;;;;33.97;21.67;;;;;;;15.03;71.79;102256.41;5092833;28;20027;-65
2021/05/31 07:08:36;;;;;;;32.75;21.30;;;;;;;15.14;69.60;102248.50;5093581;28;20478;-65
2021/05/31 07:11:07;;;;;;;35.10;20.75;;;;;;;15.23;69.23;102248.59;5103279;28;20180;-65
2021/05/31 07:13:32;;;;;;;32.25;20.02;;;;;;;15.33;66.93;102250.44;5102001;27;20467;-65
2021/05/31 07:15:58;;;;;;;32.75;20.30;;;;;;;15.45;67.15;102257.63;5104391;28;20020;-65
2021/05/31 07:18:24;;;;;;;30.83;18.40;;;;;;;15.58;65.84;102247.94;5091222;28;20028;-67
2021/05/31 07:20:51;;;;;;;33.00;19.95;;;;;;;15.68;65.32;102246.19;5093365;28;20031;-67
2021/05/31 07:23:17;;;;;;;34.53;20.42;;;;;;;15.78;66.40;102252.47;5092333;28;20032;-66
2021/05/31 07:25:43;;;;;;;31.95;19.65;;;;;;;15.85;66.13;102248.97;5098144;28;20028;-67
2021/05/31 07:28:08;;;;;;;32.30;19.15;;;;;;;15.96;63.34;102249.94;5091883;28;20036;-66
2021/05/31 07:30:34;;;;;;;31.25;19.17;;;;;;;16.01;63.94;102245.47;5092823;28;20024;-67
2021/05/31 07:33:00;;;;;;;30.63;18.67;;;;;;;16.14;63.17;102240.22;5090626;28;21294;-65
2021/05/31 07:35:26;;;;;;;31.67;18.75;;;;;;;16.19;63.56;102244.69;5093612;28;20051;-64
2021/05/31 07:37:51;;;;;;;30.45;18.67;;;;;;;16.26;63.08;102245.56;5090760;28;20137;-64
2021/05/31 07:40:17;;;;;;;32.13;18.77;;;;;;;16.39;63.41;102242.03;5093243;28;20028;-66
2021/05/31 07:42:43;;;;;;;31.67;19.20;;;;;;;16.48;62.33;102240.28;5092776;28;20032;-66
2021/05/31 07:45:10;;;;;;;30.77;18.80;;;;;;;16.55;62.27;102237.63;5093245;28;20024;-65
2021/05/31 07:47:35;;;;;;;32.05;18.48;;;;;;;16.68;63.48;102233.19;5091450;28;20024;-64
2021/05/31 07:50:02;;;;;;;30.05;17.85;;;;;;;16.81;62.40;102235.88;5092338;28;20044;-66
2021/05/31 07:52:28;;;;;;;31.85;19.25;;;;;;;16.96;61.33;102232.34;5092134;28;20028;-64
2021/05/31 07:54:54;;;;;;;30.33;18.23;;;;;;;16.99;61.31;102235.91;5091864;28;20435;-65
2021/05/31 07:57:23;;;;;;;31.10;18.23;;;;;;;17.14;60.22;102223.44;5092552;28;20069;-65
2021/05/31 07:59:51;;;;;;;29.33;16.52;;;;;;;17.18;59.66;102231.47;5091791;28;20024;-65
2021/05/31 08:02:16;;;;;;;30.52;17.73;;;;;;;17.32;58.47;102226.09;5092441;28;20028;-65
2021/05/31 08:04:42;;;;;;;28.63;16.27;;;;;;;17.43;57.53;102216.25;5092954;28;20031;-65
2021/05/31 08:07:11;;;;;;;28.80;15.98;;;;;;;17.62;57.60;102221.56;5091524;28;20020;-65
2021/05/31 08:09:37;;;;;;;29.10;17.13;;;;;;;17.75;56.51;102223.28;5091944;28;20463;-65
2021/05/31 08:12:03;;;;;;;27.13;15.10;;;;;;;17.88;56.04;102215.22;5091802;28;20165;-65
2021/05/31 08:14:29;;;;;;;28.63;15.20;;;;;;;18.02;55.47;102224.09;5091679;28;20036;-65
2021/05/31 08:16:54;;;;;;;27.73;15.48;;;;;;;18.09;54.76;102220.50;5091696;28;20027;-65
2021/05/31 08:19:21;;;;;;;27.83;16.02;;;;;;;18.22;55.58;102220.44;5101833;28;20513;-65
2021/05/31 08:21:47;;;;;;;27.80;15.90;;;;;;;18.35;54.22;102216.78;5103604;28;20023;-65
2021/05/31 08:24:13;;;;;;;28.35;16.58;;;;;;;18.51;53.93;102217.56;5100773;28;20035;-64
2021/05/31 08:26:41;;;;;;;29.33;17.20;;;;;;;18.63;53.79;102214.78;5096529;28;20020;-65
2021/05/31 08:29:07;;;;;;;27.85;15.95;;;;;;;18.87;53.31;102228.03;5103938;28;20433;-65
2021/05/31 08:31:33;;;;;;;30.88;17.35;;;;;;;18.96;52.47;102220.81;5101282;28;20028;-64
2021/05/31 08:33:59;;;;;;;29.70;18.17;;;;;;;19.13;53.63;102217.09;5102906;28;20029;-69
2021/05/31 08:36:24;;;;;;;29.70;17.95;;;;;;;19.19;52.50;102217.00;5102657;28;20034;-69
2021/05/31 08:38:52;;;;;;;30.30;17.27;;;;;;;19.27;52.33;102211.59;5087137;28;20123;-69
2021/05/31 08:41:18;;;;;;;30.00;16.63;;;;;;;19.46;52.26;102214.97;5093913;28;20032;-74
2021/05/31 08:43:43;;;;;;;27.85;15.20;;;;;;;19.60;49.87;102212.09;5085035;28;20078;-69
2021/05/31 08:46:09;;;;;;;27.90;14.23;;;;;;;19.69;48.67;102207.53;5090882;28;20458;-73
2021/05/31 08:48:35;;;;;;;28.50;13.95;;;;;;;19.86;48.11;102209.13;5090900;28;20091;-66
2021/05/31 08:51:01;;;;;;;24.80;12.52;;;;;;;19.87;45.04;102202.88;5092238;28;20032;-65
2021/05/31 08:53:26;;;;;;;26.80;13.50;;;;;;;20.10;46.76;102205.25;5092327;28;20027;-65
2021/05/31 08:55:51;;;;;;;27.17;14.43;;;;;;;20.26;46.13;102211.28;5091427;28;20382;-66
2021/05/31 08:58:19;;;;;;;26.55;13.98;;;;;;;20.18;45.25;102200.66;5090828;28;20025;-66
2021/05/31 09:00:44;;;;;;;25.58;12.70;;;;;;;20.42;45.73;102203.00;5091044;28;20039;-66
2021/05/31 09:03:10;;;;;;;26.75;14.38;;;;;;;20.59;47.40;102194.66;5092012;28;20025;-65
2021/05/31 09:05:39;;;;;;;26.17;13.50;;;;;;;20.78;46.41;102197.97;5091157;28;20073;-66
2021/05/31 09:08:14;;;;;;;26.65;13.32;;;;;;;20.95;45.24;102201.25;5091656;28;20028;-66
2021/05/31 09:10:44;;;;;;;25.05;12.00;;;;;;;21.20;44.17;102192.75;5089550;28;20020;-66
2021/05/31 09:13:11;;;;;;;24.48;12.00;;;;;;;21.31;42.16;102196.13;5088984;28;20379;-70
2021/05/31 09:15:39;;;;;;;22.60;10.82;;;;;;;21.41;42.37;102194.13;5091003;28;20023;-70
2021/05/31 09:18:04;;;;;;;25.77;12.75;;;;;;;21.47;41.40;102191.31;5089063;28;20578;-66
2021/05/31 09:20:30;;;;;;;24.92;12.27;;;;;;;21.41;42.38;102191.44;5092194;28;20127;-65
2021/05/31 09:22:56;;;;;;;25.17;12.30;;;;;;;21.44;42.10;102193.19;5105140;28;20027;-66
2021/05/31 09:25:29;;;;;;;23.23;9.70;;;;;;;21.51;39.94;102181.41;5104044;27;20020;-66
2021/05/31 09:27:55;;;;;;;23.38;10.13;;;;;;;21.70;41.78;102181.94;5107272;28;20020;-65
2021/05/31 09:30:35;;;;;;;22.63;9.27;;;;;;;21.92;40.33;102185.03;5104247;28;20020;-66
2021/05/31 09:33:00;;;;;;;21.27;9.20;;;;;;;22.10;39.14;102186.44;5103360;28;20491;-66
2021/05/31 09:35:26;;;;;;;21.40;8.23;;;;;;;22.34;37.99;102184.09;5090927;28;20027;-69
2021/05/31 09:37:51;;;;;;;21.55;8.50;;;;;;;22.40;36.98;102183.97;5089490;28;20040;-66
2021/05/31 09:40:26;;;;;;;21.65;9.43;;;;;;;22.41;37.87;102174.97;5094447;28;20043;-70
2021/05/31 09:42:54;;;;;;;21.27;8.80;;;;;;;22.68;37.51;102169.81;5091419;28;20024;-65
2021/05/31 09:45:20;;;;;;;21.92;8.15;;;;;;;22.86;36.62;102176.53;5089405;28;20033;-70
2021/05/31 09:47:47;;;;;;;20.25;8.35;;;;;;;22.91;35.88;102175.50;5087564;28;20168;-69
2021/05/31 09:50:24;;;;;;;21.33;7.93;;;;;;;22.96;35.71;102168.19;5094474;28;20030;-66
2021/05/31 09:53:12;;;;;;;20.50;7.47;;;;;;;23.39;36.85;102163.44;5101641;28;20039;-66
2021/05/31 09:55:46;;;;;;;20.67;8.18;;;;;;;23.67;36.45;102157.22;5094861;28;20459;-71
2021/05/31 09:58:14;;;;;;;20.23;7.75;;;;;;;24.14;35.88;102162.09;5091163;28;20029;-69
2021/05/31 10:00:42;;;;;;;20.35;7.28;;;;;;;24.97;32.02;102167.44;5093788;28;20013;-67
2021/05/31 10:11:04;;;;;;;19.33;6.72;;;;;;;30.75;24.74;102148.28;5102404;28;20028;-68
2021/05/31 10:13:30;;;;;;;21.23;7.63;;;;;;;31.44;24.21;102159.50;5106029;28;20066;-68
2021/05/31 10:15:57;;;;;;;21.70;8.73;;;;;;;31.39;22.78;102150.75;5103044;28;20024;-67
2021/05/31 10:18:25;;;;;;;21.63;8.43;;;;;;;31.36;21.14;102146.34;5107140;28;20031;-67
2021/05/31 10:20:51;;;;;;;19.33;7.28;;;;;;;32.01;21.64;102144.03;5099305;28;20119;-67
2021/05/31 10:23:17;;;;;;;20.67;8.15;;;;;;;32.56;20.87;102147.66;5106195;28;20482;-68
2021/05/31 10:25:50;;;;;;;20.92;7.70;;;;;;;32.87;20.89;102151.91;5104385;28;20035;-70
2021/05/31 10:28:18;;;;;;;19.63;6.95;;;;;;;33.10;19.48;102142.06;5105891;28;20036;-66
2021/05/31 10:30:49;;;;;;;19.38;7.05;;;;;;;33.33;22.09;102142.28;5103691;28;20028;-67
2021/05/31 10:33:17;;;;;;;20.97;8.57;;;;;;;33.08;19.39;102138.56;5106242;28;20055;-66
2021/05/31 10:35:43;;;;;;;20.05;7.38;;;;;;;33.57;20.12;102145.13;5103070;28;20277;-71
2021/05/31 10:38:13;;;;;;;22.10;7.80;;;;;;;33.91;19.74;102137.16;5104387;28;20511;-67
2021/05/31 10:40:44;;;;;;;20.02;7.32;;;;;;;33.57;19.50;102128.69;5104548;28;20110;-72
2021/05/31 10:43:13;;;;;;;20.38;7.38;;;;;;;34.32;18.76;102130.41;5104998;28;20494;-71
2021/05/31 10:45:40;;;;;;;19.25;6.95;;;;;;;34.32;18.10;102124.94;5104198;28;20458;-72
2021/05/31 10:48:22;;;;;;;19.75;6.88;;;;;;;34.91;19.85;102120.41;5104236;28;20027;-72
2021/05/31 10:50:52;;;;;;;19.17;6.80;;;;;;;34.78;18.75;102130.56;5102019;28;20059;-70
2021/05/31 10:53:18;;;;;;;20.17;6.72;;;;;;;35.19;18.56;102131.91;5103924;28;20089;-70
2021/05/31 10:55:58;;;;;;;19.33;7.00;;;;;;;35.71;17.68;102124.03;5105079;28;20036;-66
2021/05/31 10:58:30;;;;;;;20.30;7.20;;;;;;;35.98;17.30;102131.88;5104156;28;20023;-72
2021/05/31 11:01:01;;;;;;;20.80;7.50;;;;;;;36.00;16.59;102121.66;5103607;28;20034;-66
2021/05/31 11:03:31;;;;;;;20.25;7.50;;;;;;;35.01;17.29;102118.69;5104989;28;20024;-67
2021/05/31 11:05:57;;;;;;;19.02;7.05;;;;;;;34.38;18.20;102110.75;5103549;28;20034;-67
2021/05/31 11:08:28;;;;;;;20.23;6.93;;;;;;;34.63;18.16;102116.19;5103813;28;20028;-66
2021/05/31 11:11:01;;;;;;;18.77;6.70;;;;;;;35.55;17.82;102113.47;5103936;28;20027;-66
2021/05/31 11:13:27;;;;;;;18.55;6.68;;;;;;;36.37;16.50;102109.41;5104379;28;20028;-66
2021/05/31 11:16:08;;;;;;;19.52;6.53;;;;;;;35.81;17.18;102099.44;5104080;28;20042;-66
2021/05/31 11:18:45;;;;;;;18.55;6.50;;;;;;;35.81;17.51;102099.44;5105071;28;20464;-66
2021/05/31 11:21:24;;;;;;;20.02;6.35;;;;;;;36.16;15.94;102096.44;5098749;28;20028;-66
2021/05/31 11:23:56;;;;;;;18.70;6.30;;;;;;;36.57;16.86;102093.91;5104267;28;20039;-66
2021/05/31 11:26:21;;;;;;;21.58;6.72;;;;;;;36.99;16.06;102086.50;5103481;28;20020;-66
2021/05/31 11:28:47;;;;;;;18.75;5.93;;;;;;;37.21;17.33;102091.94;5104508;28;20027;-67
2021/05/31 11:31:12;;;;;;;19.17;6.38;;;;;;;37.03;15.67;102078.81;5102009;28;20021;-67
2021/05/31 11:33:38;;;;;;;18.33;6.00;;;;;;;36.43;15.01;102089.59;5105376;28;20023;-66
2021/05/31 11:36:04;;;;;;;18.45;5.80;;;;;;;36.59;16.39;102080.88;5096050;28;20382;-66
2021/05/31 11:38:30;;;;;;;18.17;6.20;;;;;;;36.01;15.51;102082.09;5091724;28;20039;-66